Time;durP1;ratioP1;P1;durP2;ratioP2;P2;SDS_P1;SDS_P2;PMS_P1;PMS_P2;Temp;Humidity;BMP_temperature;BMP_pressure;BME280_temperature;BME280_humidity;BME280_pressure;Samples;Min_cycle;Max_cycle;Signal;HPM_P1;HPM_P2
2023/08/30 00:00:52;;;;;;;0.00;0.00;;;21.90;99.90;;;;;;5081466;28;20119;-78
2023/08/30 00:03:19;;;;;;;0.00;0.00;;;21.60;99.90;;;;;;5080766;28;20016;-75
2023/08/30 00:05:45;;;;;;;0.00;0.00;;;21.10;99.90;;;;;;5062689;28;20017;-78
2023/08/30 00:08:13;;;;;;;0.00;0.00;;;21.00;99.90;;;;;;5082699;28;20421;-76
2023/08/30 00:10:42;;;;;;;1.05;1.05;;;20.60;99.90;;;;;;5064441;28;20036;-75
2023/08/30 00:13:08;;;;;;;0.10;0.10;;;20.60;99.90;;;;;;5067473;28;20039;-77
2023/08/30 00:15:35;;;;;;;0.00;0.00;;;20.50;99.90;;;;;;5084368;28;20582;-76
2023/08/30 00:18:02;;;;;;;0.10;0.10;;;20.30;99.90;;;;;;5085358;28;20058;-76
2023/08/30 00:20:28;;;;;;;0.05;0.05;;;20.10;99.90;;;;;;5085433;28;20024;-75
2023/08/30 00:22:55;;;;;;;0.00;0.00;;;19.60;99.90;;;;;;5065802;28;20445;-76
2023/08/30 00:25:22;;;;;;;0.00;0.00;;;19.70;99.90;;;;;;5084253;28;20028;-76
2023/08/30 00:27:48;;;;;;;0.00;0.00;;;19.40;99.90;;;;;;5084457;28;20016;-78
2023/08/30 00:30:15;;;;;;;0.00;0.00;;;19.20;99.90;;;;;;5084210;28;20024;-76
2023/08/30 00:32:44;;;;;;;0.00;0.00;;;19.20;99.90;;;;;;5065779;28;20024;-76
2023/08/30 00:35:11;;;;;;;0.00;0.00;;;19.20;99.90;;;;;;5082694;28;20031;-76
2023/08/30 00:37:38;;;;;;;0.00;0.00;;;19.30;99.90;;;;;;5064683;28;20674;-75
2023/08/30 00:40:08;;;;;;;0.00;0.00;;;19.10;99.90;;;;;;5065518;28;20024;-75
2023/08/30 00:42:34;;;;;;;0.00;0.00;;;19.30;99.90;;;;;;5064829;28;20119;-75
2023/08/30 00:45:01;;;;;;;0.00;0.00;;;19.10;99.90;;;;;;5064872;28;20097;-75
2023/08/30 00:47:27;;;;;;;2.05;1.95;;;17.50;99.90;;;;;;5083667;28;20111;-76
2023/08/30 00:49:54;;;;;;;0.85;0.85;;;18.80;99.90;;;;;;5065757;28;20020;-77
2023/08/30 00:52:22;;;;;;;0.00;0.00;;;18.70;99.90;;;;;;5084028;28;20085;-75
2023/08/30 00:54:49;;;;;;;0.00;0.00;;;18.70;99.90;;;;;;5065348;28;20421;-76
2023/08/30 00:57:17;;;;;;;0.00;0.00;;;16.60;99.90;;;;;;5064657;28;20397;-76
2023/08/30 00:59:51;;;;;;;0.00;0.00;;;19.10;99.90;;;;;;5083711;28;20040;-77
2023/08/30 01:02:18;;;;;;;0.00;0.00;;;18.60;99.90;;;;;;5064888;28;20113;-76
2023/08/30 01:04:45;;;;;;;0.00;0.00;;;18.70;99.90;;;;;;5083277;28;20046;-75
2023/08/30 01:07:14;;;;;;;0.00;0.00;;;19.10;99.90;;;;;;5082297;28;20020;-75
2023/08/30 01:09:41;;;;;;;0.65;0.65;;;19.90;99.90;;;;;;5063392;28;20031;-77
2023/08/30 01:12:26;;;;;;;0.00;0.00;;;20.40;99.90;;;;;;5064866;28;20696;-76
2023/08/30 01:15:09;;;;;;;0.00;0.00;;;20.00;99.90;;;;;;5083776;28;20086;-77
2023/08/30 01:17:37;;;;;;;0.00;0.00;;;20.30;99.90;;;;;;5082541;28;20046;-76
2023/08/30 01:20:24;;;;;;;0.90;0.90;;;20.00;99.90;;;;;;5063268;28;20094;-76
2023/08/30 01:23:28;;;;;;;0.00;0.00;;;20.00;99.90;;;;;;5080906;28;20157;-76
2023/08/30 01:26:33;;;;;;;0.00;0.00;;;19.60;99.90;;;;;;5018375;28;20063;-76
2023/08/30 01:29:02;;;;;;;2.25;2.15;;;19.80;99.90;;;;;;5001108;28;20466;-75
2023/08/30 01:31:30;;;;;;;1.65;1.23;;;20.30;99.90;;;;;;5017604;28;20029;-77
2023/08/30 01:33:57;;;;;;;0.00;0.00;;;22.30;99.90;;;;;;5016924;28;20411;-78
2023/08/30 01:36:23;;;;;;;0.00;0.00;;;;;;;;;;5000898;28;20056;-75
2023/08/30 01:38:50;;;;;;;0.00;0.00;;;21.00;99.90;;;;;;5017077;28;20518;-76
2023/08/30 01:41:17;;;;;;;0.20;0.20;;;21.10;99.90;;;;;;5016715;28;20042;-75
2023/08/30 01:43:44;;;;;;;0.00;0.00;;;21.10;99.90;;;;;;5019352;28;20029;-75
2023/08/30 01:46:11;;;;;;;0.00;0.00;;;21.20;99.90;;;;;;5020423;28;20109;-79
2023/08/30 01:48:39;;;;;;;6.03;3.42;;;20.90;99.90;;;;;;5017747;28;20475;-78
2023/08/30 01:51:06;;;;;;;0.00;0.00;;;20.90;99.90;;;;;;5018360;28;20032;-78
2023/08/30 01:53:32;;;;;;;2.85;2.67;;;21.00;99.90;;;;;;5017105;28;20025;-77
2023/08/30 01:55:59;;;;;;;0.00;0.00;;;21.00;99.90;;;;;;5016381;28;20235;-78
2023/08/30 01:58:25;;;;;;;0.10;0.10;;;21.80;99.90;;;;;;5018041;28;20037;-78
2023/08/30 02:01:10;;;;;;;0.00;0.00;;;21.30;99.90;;;;;;5016269;28;20597;-83
2023/08/30 02:03:37;;;;;;;0.00;0.00;;;21.40;99.90;;;;;;5071163;28;20036;-78
2023/08/30 02:06:13;;;;;;;0.00;0.00;;;21.30;99.90;;;;;;5063052;28;20043;-78
2023/08/30 02:08:57;;;;;;;0.63;0.50;;;21.30;99.90;;;;;;5081116;28;20355;-75
2023/08/30 02:11:26;;;;;;;;;;;21.30;99.90;;;;;;5081888;28;20066;-74
2023/08/30 02:13:55;;;;;;;0.00;0.00;;;21.40;99.90;;;;;;5081319;28;19950;-75
2023/08/30 02:16:23;;;;;;;0.00;0.00;;;21.40;99.90;;;;;;5064711;28;20434;-75
2023/08/30 02:18:50;;;;;;;0.00;0.00;;;21.30;99.90;;;;;;5081586;28;20114;-75
2023/08/30 02:21:16;;;;;;;0.00;0.00;;;21.50;99.90;;;;;;5081348;28;20643;-75
2023/08/30 02:23:42;;;;;;;0.00;0.00;;;21.40;99.90;;;;;;5082352;28;20027;-75
2023/08/30 02:26:08;;;;;;;0.00;0.00;;;20.90;99.90;;;;;;5081576;28;20036;-75
2023/08/30 02:28:35;;;;;;;0.00;0.00;;;20.80;99.90;;;;;;5082593;28;20099;-75
2023/08/30 02:31:01;;;;;;;0.00;0.00;;;20.70;99.90;;;;;;5081036;28;20028;-78
2023/08/30 02:33:29;;;;;;;0.00;0.00;;;20.80;99.90;;;;;;5062684;28;20032;-75
2023/08/30 02:35:56;;;;;;;0.00;0.00;;;21.00;99.90;;;;;;5081372;28;20016;-75
2023/08/30 02:38:22;;;;;;;0.00;0.00;;;21.10;99.90;;;;;;5063121;28;20331;-75
2023/08/30 02:40:50;;;;;;;0.00;0.00;;;20.60;99.90;;;;;;5063584;28;20509;-75
2023/08/30 02:43:16;;;;;;;0.00;0.00;;;20.50;99.90;;;;;;5063919;28;20109;-75
2023/08/30 02:45:43;;;;;;;0.00;0.00;;;20.20;99.90;;;;;;5081765;28;20678;-78
2023/08/30 02:48:09;;;;;;;0.00;0.00;;;20.00;99.90;;;;;;5061997;28;20414;-77
2023/08/30 02:50:36;;;;;;;0.00;0.00;;;20.00;99.90;;;;;;5062941;28;20048;-74
2023/08/30 02:53:03;;;;;;;0.00;0.00;;;19.80;99.90;;;;;;5080981;28;20023;-75
2023/08/30 02:55:30;;;;;;;0.00;0.00;;;19.90;99.90;;;;;;5062828;28;20134;-79
2023/08/30 02:57:58;;;;;;;23.05;21.40;;;16.90;99.90;;;;;;5080253;28;20236;-77
2023/08/30 03:00:24;;;;;;;0.00;0.00;;;20.40;99.90;;;;;;5081381;28;20046;-76
2023/08/30 03:02:50;;;;;;;0.00;0.00;;;20.10;99.90;;;;;;5081247;28;20093;-76
2023/08/30 03:05:17;;;;;;;0.00;0.00;;;20.20;99.90;;;;;;5063329;28;20645;-76
2023/08/30 03:07:44;;;;;;;0.25;0.25;;;20.30;99.90;;;;;;5081510;28;20070;-75
2023/08/30 03:10:11;;;;;;;0.00;0.00;;;20.20;99.90;;;;;;5080393;28;20020;-76
2023/08/30 03:12:37;;;;;;;0.30;0.28;;;19.90;99.90;;;;;;5079961;28;20063;-75
2023/08/30 03:15:05;;;;;;;0.00;0.00;;;20.10;99.90;;;;;;5079934;28;20028;-75
2023/08/30 03:17:31;;;;;;;0.00;0.00;;;20.20;99.90;;;;;;5079574;28;20123;-76
2023/08/30 03:19:58;;;;;;;0.00;0.00;;;20.70;99.90;;;;;;5080518;28;20101;-76
2023/08/30 03:22:25;;;;;;;0.00;0.00;;;20.80;99.90;;;;;;5063934;28;20362;-77
2023/08/30 03:24:52;;;;;;;0.00;0.00;;;21.10;99.90;;;;;;5081416;28;20079;-79
2023/08/30 03:27:19;;;;;;;0.00;0.00;;;20.70;99.90;;;;;;5062659;28;20032;-77
2023/08/30 03:29:46;;;;;;;0.00;0.00;;;21.00;99.90;;;;;;5062376;28;20561;-77
2023/08/30 03:32:17;;;;;;;0.00;0.00;;;20.70;99.90;;;;;;5080328;28;20038;-77
2023/08/30 03:34:46;;;;;;;0.00;0.00;;;20.80;99.90;;;;;;5063747;28;20020;-76
2023/08/30 03:37:15;;;;;;;0.00;0.00;;;20.90;99.90;;;;;;5081227;28;20573;-77
2023/08/30 03:39:43;;;;;;;0.00;0.00;;;20.80;99.90;;;;;;5081566;28;20024;-77
2023/08/30 03:42:12;;;;;;;0.00;0.00;;;20.90;99.90;;;;;;5081685;28;20067;-77
2023/08/30 03:44:38;;;;;;;0.10;0.10;;;21.00;99.90;;;;;;5063760;28;20021;-77
2023/08/30 03:47:05;;;;;;;0.00;0.00;;;22.20;99.90;;;;;;5085342;28;20115;-79
2023/08/30 03:49:31;;;;;;;0.00;0.00;;;21.10;99.90;;;;;;5085466;28;20360;-78
2023/08/30 03:51:57;;;;;;;0.00;0.00;;;21.40;99.90;;;;;;5083953;28;20655;-80
2023/08/30 03:54:24;;;;;;;0.20;0.20;;;20.40;99.90;;;;;;5083922;28;20212;-79
2023/08/30 03:56:50;;;;;;;0.00;0.00;;;19.90;99.90;;;;;;5084368;28;20593;-80
2023/08/30 03:59:17;;;;;;;0.65;0.65;;;20.40;99.90;;;;;;5066327;28;20082;-76
2023/08/30 04:01:45;;;;;;;0.00;0.00;;;22.20;99.90;;;;;;5084528;28;20016;-79
2023/08/30 04:04:11;;;;;;;0.00;0.00;;;20.60;99.90;;;;;;5066525;28;20457;-79
2023/08/30 04:06:37;;;;;;;0.00;0.00;;;20.60;99.90;;;;;;5065331;28;20115;-79
2023/08/30 04:09:03;;;;;;;0.00;0.00;;;20.70;99.90;;;;;;5083430;28;20423;-77
2023/08/30 04:11:30;;;;;;;0.00;0.00;;;20.80;99.90;;;;;;5084203;28;20031;-77
2023/08/30 04:13:56;;;;;;;0.00;0.00;;;20.90;99.90;;;;;;5084407;28;20097;-76
2023/08/30 04:16:24;;;;;;;0.00;0.00;;;21.00;99.90;;;;;;5062023;28;20040;-77
2023/08/30 04:18:50;;;;;;;0.00;0.00;;;;;;;;;;5064345;28;20263;-76
2023/08/30 04:21:16;;;;;;;2.90;1.55;;;;;;;;;;5063746;28;20046;-77
2023/08/30 04:23:43;;;;;;;0.00;0.00;;;;;;;;;;5061782;28;20024;-77
2023/08/30 04:26:09;;;;;;;0.00;0.00;;;;;;;;;;5062392;28;20604;-79
2023/08/30 04:28:44;;;;;;;1.63;0.88;;;20.20;99.90;;;;;;5061618;28;20344;-77
2023/08/30 04:31:10;;;;;;;0.00;0.00;;;20.50;99.90;;;;;;5060245;28;20097;-77
2023/08/30 04:33:37;;;;;;;0.00;0.00;;;20.20;99.90;;;;;;5062946;28;20036;-77
2023/08/30 04:36:04;;;;;;;0.00;0.00;;;20.20;99.90;;;;;;5063106;28;20028;-76
2023/08/30 04:38:30;;;;;;;0.00;0.00;;;20.30;99.90;;;;;;5061718;28;20050;-77
2023/08/30 04:41:00;;;;;;;0.00;0.00;;;20.40;99.90;;;;;;5061713;28;20025;-77
2023/08/30 04:43:26;;;;;;;0.00;0.00;;;20.50;99.90;;;;;;5062238;28;20028;-76
2023/08/30 04:45:52;;;;;;;0.20;0.20;;;20.20;99.90;;;;;;5063150;28;20016;-77
2023/08/30 04:48:28;;;;;;;0.00;0.00;;;18.90;99.90;;;;;;5063878;28;20029;-77
2023/08/30 04:51:05;;;;;;;0.00;0.00;;;20.70;99.90;;;;;;5063587;28;20016;-76
2023/08/30 04:53:31;;;;;;;0.00;0.00;;;20.50;99.90;;;;;;5063601;28;20025;-79
2023/08/30 04:55:59;;;;;;;0.00;0.00;;;20.30;99.90;;;;;;5060588;28;20143;-79
2023/08/30 04:58:25;;;;;;;1.38;1.38;;;20.20;99.90;;;;;;5060843;28;20329;-79
2023/08/30 05:00:51;;;;;;;0.00;0.00;;;20.00;99.90;;;;;;5063404;28;20037;-79
2023/08/30 05:03:17;;;;;;;0.00;0.00;;;20.30;99.90;;;;;;5061946;28;20047;-79
2023/08/30 05:05:48;;;;;;;0.00;0.00;;;20.50;99.90;;;;;;5063314;28;20221;-79
2023/08/30 05:08:14;;;;;;;0.10;0.10;;;18.20;99.90;;;;;;5061522;28;20108;-79
2023/08/30 05:10:40;;;;;;;0.82;0.82;;;20.80;99.90;;;;;;5060778;28;20470;-80
2023/08/30 05:13:07;;;;;;;0.28;0.28;;;;;;;;;;5059020;28;20052;-79
2023/08/30 05:15:33;;;;;;;1.55;1.45;;;20.90;99.90;;;;;;5058307;28;20332;-77
2023/08/30 05:17:59;;;;;;;0.55;0.55;;;;;;;;;;5078974;28;20558;-80
2023/08/30 05:20:26;;;;;;;0.00;0.00;;;21.00;99.90;;;;;;5064314;28;20081;-76
2023/08/30 05:22:52;;;;;;;5.18;4.90;;;20.80;99.90;;;;;;5084116;28;20051;-77
2023/08/30 05:25:18;;;;;;;0.00;0.00;;;;;;;;;;5083357;28;20409;-76
2023/08/30 05:27:45;;;;;;;0.00;0.00;;;20.00;99.90;;;;;;5083174;28;20666;-78
2023/08/30 05:30:13;;;;;;;0.10;0.10;;;19.70;99.90;;;;;;5064143;28;20054;-77
2023/08/30 05:32:38;;;;;;;0.00;0.00;;;19.60;99.90;;;;;;5064645;28;20020;-78
2023/08/30 05:35:05;;;;;;;0.43;0.43;;;19.50;99.90;;;;;;5083823;28;20038;-77
2023/08/30 05:37:31;;;;;;;0.00;0.00;;;19.60;99.90;;;;;;5083142;28;20024;-76
2023/08/30 05:39:58;;;;;;;0.20;0.20;;;19.90;99.90;;;;;;5063712;28;20576;-77
2023/08/30 05:42:24;;;;;;;0.00;0.00;;;20.10;99.90;;;;;;5063484;28;20666;-79
2023/08/30 05:44:50;;;;;;;0.03;0.03;;;;;;;;;;5081741;28;20016;-76
2023/08/30 05:47:18;;;;;;;0.00;0.00;;;20.00;99.90;;;;;;5081832;28;20573;-76
2023/08/30 05:49:45;;;;;;;0.10;0.10;;;20.00;99.90;;;;;;5063341;28;20095;-76
2023/08/30 05:52:11;;;;;;;4.65;2.13;;;19.90;99.90;;;;;;5063590;28;20077;-76
2023/08/30 05:54:37;;;;;;;7.97;7.20;;;20.40;99.90;;;;;;5081485;28;20035;-77
2023/08/30 05:57:04;;;;;;;1.42;1.35;;;19.30;99.90;;;;;;5081652;28;20024;-79
2023/08/30 05:59:30;;;;;;;0.00;0.00;;;19.40;99.90;;;;;;5081337;28;20062;-76
2023/08/30 06:01:57;;;;;;;0.10;0.10;;;19.50;99.90;;;;;;5063043;28;20422;-76
2023/08/30 06:04:23;;;;;;;0.00;0.00;;;21.30;99.90;;;;;;5062291;28;20020;-77
2023/08/30 06:06:49;;;;;;;0.25;0.25;;;19.40;99.90;;;;;;5063874;28;20028;-78
2023/08/30 06:09:16;;;;;;;0.10;0.10;;;19.70;99.90;;;;;;5081800;28;20024;-76
2023/08/30 06:11:43;;;;;;;0.20;0.20;;;19.90;99.90;;;;;;5064420;28;20441;-78
2023/08/30 06:14:09;;;;;;;5.25;1.65;;;20.00;99.90;;;;;;5080377;28;20067;-77
2023/08/30 06:16:35;;;;;;;0.10;0.10;;;20.10;99.90;;;;;;5062804;28;20108;-79
2023/08/30 06:19:02;;;;;;;0.95;0.95;;;;;;;;;;5080131;28;20649;-81
2023/08/30 06:21:28;;;;;;;0.00;0.00;;;20.50;99.90;;;;;;5082455;28;20050;-83
2023/08/30 06:23:53;;;;;;;0.00;0.00;;;20.60;99.90;;;;;;5080838;28;20033;-78
2023/08/30 06:26:22;;;;;;;0.00;0.00;;;20.60;99.90;;;;;;5081397;28;20141;-78
2023/08/30 06:28:48;;;;;;;1.17;1.17;;;20.60;99.90;;;;;;5061890;28;20119;-79
2023/08/30 06:31:21;;;;;;;0.08;0.08;;;20.70;99.90;;;;;;5082974;28;20094;-78
2023/08/30 06:33:48;;;;;;;3.50;1.75;;;20.90;99.90;;;;;;5064800;28;20031;-78
2023/08/30 06:36:17;;;;;;;4.47;1.35;;;20.90;99.90;;;;;;5062496;28;20032;-77
2023/08/30 06:38:43;;;;;;;0.85;0.85;;;20.90;99.90;;;;;;5061589;28;20031;-84
2023/08/30 06:41:09;;;;;;;0.03;0.03;;;20.80;99.90;;;;;;5059693;28;20761;-78
2023/08/30 06:43:35;;;;;;;0.52;0.52;;;20.80;99.90;;;;;;5080623;28;20032;-77
2023/08/30 06:46:01;;;;;;;2.30;1.45;;;20.80;99.90;;;;;;5080893;28;20024;-78
2023/08/30 06:48:27;;;;;;;0.00;0.00;;;21.10;99.90;;;;;;5080624;28;20663;-78
2023/08/30 06:50:58;;;;;;;0.00;0.00;;;21.40;99.90;;;;;;5080308;28;20081;-77
2023/08/30 06:53:28;;;;;;;0.95;0.73;;;21.20;99.90;;;;;;5080197;28;20012;-77
2023/08/30 06:56:00;;;;;;;0.25;0.25;;;21.50;99.90;;;;;;5078880;28;20020;-77
2023/08/30 06:58:27;;;;;;;0.00;0.00;;;21.40;99.90;;;;;;5080585;28;20020;-78
2023/08/30 07:00:57;;;;;;;0.00;0.00;;;18.30;99.90;;;;;;5081038;28;20777;-77
2023/08/30 07:03:23;;;;;;;0.00;0.00;;;20.70;99.90;;;;;;5061810;28;20020;-80
2023/08/30 07:05:51;;;;;;;4.40;3.75;;;21.50;99.90;;;;;;5081565;28;20028;-78
2023/08/30 07:08:17;;;;;;;0.00;0.00;;;;;;;;;;5060862;28;20036;-77
2023/08/30 07:10:43;;;;;;;0.10;0.10;;;21.70;99.90;;;;;;5079124;28;20028;-78
2023/08/30 07:13:12;;;;;;;0.00;0.00;;;;;;;;;;5079081;28;20172;-79
2023/08/30 07:15:44;;;;;;;0.00;0.00;;;21.70;99.90;;;;;;5078424;28;20016;-78
2023/08/30 07:18:11;;;;;;;0.00;0.00;;;21.50;99.90;;;;;;5079585;28;20105;-78
2023/08/30 07:20:42;;;;;;;0.80;0.80;;;21.60;99.90;;;;;;5063459;28;20036;-78
2023/08/30 07:23:10;;;;;;;2.22;2.13;;;21.80;99.90;;;;;;5065133;28;20030;-89
2023/08/30 07:25:41;;;;;;;0.00;0.00;;;21.80;99.90;;;;;;5084369;28;20017;-80
2023/08/30 07:28:08;;;;;;;0.00;0.00;;;21.80;99.90;;;;;;5083957;28;20070;-78
2023/08/30 07:30:35;;;;;;;0.10;0.10;;;22.00;99.90;;;;;;5083262;28;20501;-80
2023/08/30 07:33:01;;;;;;;0.00;0.00;;;;;;;;;;5083979;28;20247;-79
2023/08/30 07:35:33;;;;;;;0.20;0.20;;;22.10;99.80;;;;;;5083572;28;20275;-77
2023/08/30 07:38:00;;;;;;;0.70;0.70;;;22.10;99.90;;;;;;5083824;28;20023;-78
2023/08/30 07:40:28;;;;;;;0.00;0.00;;;22.10;99.90;;;;;;5084629;28;20032;-78
2023/08/30 07:42:54;;;;;;;0.00;0.00;;;21.90;99.90;;;;;;5065099;28;20028;-79
2023/08/30 07:45:20;;;;;;;0.57;0.57;;;22.00;99.50;;;;;;5064167;28;20028;-79
2023/08/30 07:47:48;;;;;;;0.00;0.00;;;22.20;99.90;;;;;;5083133;28;20021;-79
2023/08/30 07:50:14;;;;;;;9.32;2.58;;;;;;;;;;5083908;28;20022;-77
2023/08/30 07:52:48;;;;;;;0.43;0.40;;;22.40;99.90;;;;;;5064584;28;20024;-79
2023/08/30 07:55:14;;;;;;;0.10;0.10;;;;;;;;;;5064709;28;20012;-84
2023/08/30 07:57:40;;;;;;;0.00;0.00;;;22.70;99.90;;;;;;5083502;28;20028;-77
2023/08/30 08:00:11;;;;;;;0.00;0.00;;;22.80;99.90;;;;;;5083650;28;20095;-77
2023/08/30 08:02:40;;;;;;;0.00;0.00;;;22.90;99.90;;;;;;5066309;28;20320;-77
2023/08/30 08:05:06;;;;;;;0.00;0.00;;;25.20;99.10;;;;;;5064370;28;20032;-77
2023/08/30 08:07:39;;;;;;;0.00;0.00;;;23.00;96.60;;;;;;5064154;28;20040;-77
2023/08/30 08:10:05;;;;;;;0.52;0.52;;;22.40;97.60;;;;;;5064873;28;20028;-76
2023/08/30 08:12:34;;;;;;;0.00;0.00;;;23.10;97.50;;;;;;5067587;28;20039;-78
2023/08/30 08:14:59;;;;;;;0.00;0.00;;;23.30;96.30;;;;;;5081944;28;20020;-80
2023/08/30 08:17:25;;;;;;;0.00;0.00;;;23.20;96.50;;;;;;5080876;28;20063;-78
2023/08/30 08:19:54;;;;;;;0.95;0.60;;;23.20;96.60;;;;;;5081344;28;20132;-81
2023/08/30 08:22:25;;;;;;;0.00;0.00;;;21.10;95.10;;;;;;5081991;28;20665;-82
2023/08/30 08:24:53;;;;;;;0.00;0.00;;;23.90;94.90;;;;;;5082107;28;20590;-78
2023/08/30 08:27:19;;;;;;;0.00;0.00;;;23.80;94.00;;;;;;5068658;28;20564;-79
2023/08/30 08:29:48;;;;;;;0.00;0.00;;;23.90;93.60;;;;;;5082632;28;20099;-79
2023/08/30 08:32:14;;;;;;;0.00;0.00;;;23.70;93.90;;;;;;5081464;28;20017;-78
2023/08/30 08:34:47;;;;;;;0.00;0.00;;;23.90;93.10;;;;;;5082247;28;20046;-78
2023/08/30 08:37:17;;;;;;;0.00;0.00;;;24.00;92.80;;;;;;5063789;28;20085;-84
2023/08/30 08:39:46;;;;;;;1.00;1.00;;;;;;;;;;5064575;28;20711;-80
2023/08/30 08:42:12;;;;;;;0.00;0.00;;;24.30;90.90;;;;;;5082630;28;20032;-82
2023/08/30 08:44:42;;;;;;;3.72;2.30;;;24.70;91.90;;;;;;5082045;28;20377;-78
2023/08/30 08:47:08;;;;;;;0.00;0.00;;;26.90;91.80;;;;;;5061932;28;20116;-78
2023/08/30 08:49:34;;;;;;;0.00;0.00;;;24.30;91.20;;;;;;5083351;28;20088;-84
2023/08/30 08:52:01;;;;;;;0.00;0.00;;;24.40;91.00;;;;;;5082846;28;20028;-79
2023/08/30 08:54:30;;;;;;;0.00;0.00;;;24.00;90.40;;;;;;5063414;28;20020;-78
2023/08/30 08:56:57;;;;;;;0.00;0.00;;;24.40;91.00;;;;;;5063816;28;20028;-78
2023/08/30 08:59:24;;;;;;;0.00;0.00;;;24.70;90.20;;;;;;5080923;28;20062;-85
2023/08/30 09:01:50;;;;;;;0.00;0.00;;;23.40;87.70;;;;;;5062698;28;20020;-79
2023/08/30 09:04:17;;;;;;;0.00;0.00;;;22.60;84.70;;;;;;5080840;28;20012;-78
2023/08/30 09:06:45;;;;;;;0.00;0.00;;;25.60;86.00;;;;;;5081045;28;20028;-80
2023/08/30 09:09:12;;;;;;;0.00;0.00;;;25.50;84.70;;;;;;5080828;28;20024;-78
2023/08/30 09:11:38;;;;;;;0.00;0.00;;;25.50;83.20;;;;;;5081653;28;20039;-83
2023/08/30 09:14:05;;;;;;;0.00;0.00;;;25.80;84.40;;;;;;5081363;28;20113;-79
2023/08/30 09:16:31;;;;;;;0.00;0.00;;;26.20;84.20;;;;;;5062540;28;20173;-79
2023/08/30 09:19:07;;;;;;;0.00;0.00;;;26.20;82.40;;;;;;5062898;28;20051;-78
2023/08/30 09:21:33;;;;;;;0.00;0.00;;;26.40;81.50;;;;;;5080901;28;20501;-79
2023/08/30 09:24:06;;;;;;;0.00;0.00;;;26.70;80.60;;;;;;5081456;28;20016;-79
2023/08/30 09:26:38;;;;;;;0.20;0.10;;;26.70;82.50;;;;;;5062597;28;20020;-78
2023/08/30 09:29:05;;;;;;;0.00;0.00;;;25.40;80.90;;;;;;5081110;28;20385;-78
2023/08/30 09:31:36;;;;;;;6.72;6.40;;;26.30;81.20;;;;;;5063253;28;20027;-79
2023/08/30 09:34:08;;;;;;;0.10;0.10;;;26.40;80.30;;;;;;5062276;28;20464;-79
2023/08/30 09:36:38;;;;;;;1.13;0.52;;;23.60;78.70;;;;;;5061837;28;20040;-79
2023/08/30 09:39:05;;;;;;;0.00;0.00;;;26.40;79.70;;;;;;5081371;28;20024;-78
2023/08/30 09:41:34;;;;;;;0.00;0.00;;;26.50;80.90;;;;;;5080903;28;20224;-78
2023/08/30 09:44:07;;;;;;;0.00;0.00;;;25.00;79.30;;;;;;5080739;28;20024;-78
2023/08/30 09:46:49;;;;;;;0.28;0.17;;;26.00;79.90;;;;;;5082138;28;20030;-79
2023/08/30 09:49:21;;;;;;;0.00;0.00;;;26.40;80.60;;;;;;5063100;28;20023;-77
2023/08/30 09:51:48;;;;;;;0.10;0.10;;;25.90;81.40;;;;;;5062826;28;20032;-78
2023/08/30 09:54:16;;;;;;;0.00;0.00;;;25.90;81.60;;;;;;5081078;28;20027;-80
2023/08/30 09:56:44;;;;;;;0.00;0.00;;;26.60;80.90;;;;;;5081324;28;20747;-78
2023/08/30 09:59:11;;;;;;;0.13;0.13;;;26.70;81.60;;;;;;5063141;28;20417;-79
2023/08/30 10:01:40;;;;;;;0.00;0.00;;;26.40;80.30;;;;;;5080806;28;20126;-81
2023/08/30 10:04:10;;;;;;;0.00;0.00;;;26.40;81.80;;;;;;5062109;28;20020;-81
2023/08/30 10:06:40;;;;;;;0.00;0.00;;;26.50;82.50;;;;;;5081749;28;20338;-79
2023/08/30 10:09:08;;;;;;;0.75;0.52;;;26.00;82.30;;;;;;5062431;28;20120;-84
2023/08/30 10:11:35;;;;;;;0.00;0.00;;;26.10;80.40;;;;;;5080235;28;20031;-79
2023/08/30 10:14:06;;;;;;;0.00;0.00;;;26.00;81.20;;;;;;5080104;28;20031;-78
2023/08/30 10:16:43;;;;;;;0.00;0.00;;;25.90;80.90;;;;;;5080510;28;20195;-80
2023/08/30 10:19:16;;;;;;;0.00;0.00;;;26.40;82.50;;;;;;5063466;28;20036;-79
2023/08/30 10:22:08;;;;;;;0.00;0.00;;;25.80;83.00;;;;;;5061741;28;20028;-79
2023/08/30 10:24:41;;;;;;;0.00;0.00;;;26.20;81.80;;;;;;5080208;28;20522;-79
2023/08/30 10:27:09;;;;;;;0.00;0.00;;;25.90;80.80;;;;;;5061678;28;20020;-79
2023/08/30 10:29:37;;;;;;;0.00;0.00;;;26.10;82.60;;;;;;5063113;28;20099;-78
2023/08/30 10:32:05;;;;;;;0.03;0.03;;;26.40;79.90;;;;;;5081191;28;20134;-78
2023/08/30 10:34:35;;;;;;;0.00;0.00;;;26.50;80.90;;;;;;5080854;28;20028;-79
2023/08/30 10:37:03;;;;;;;0.00;0.00;;;26.40;79.70;;;;;;5080112;28;20489;-78
2023/08/30 10:39:40;;;;;;;0.00;0.00;;;26.90;80.70;;;;;;5080704;28;20051;-78
2023/08/30 10:42:10;;;;;;;0.00;0.00;;;26.30;80.50;;;;;;5081115;28;20031;-78
2023/08/30 10:45:00;;;;;;;0.00;0.00;;;26.10;81.30;;;;;;5061799;28;20020;-78
2023/08/30 10:47:31;;;;;;;0.00;0.00;;;26.10;79.10;;;;;;5080163;28;20394;-80
2023/08/30 10:49:59;;;;;;;0.00;0.00;;;26.10;79.90;;;;;;5080848;28;20196;-78
2023/08/30 10:52:27;;;;;;;0.00;0.00;;;26.60;81.00;;;;;;5061756;28;20035;-80
2023/08/30 10:54:53;;;;;;;0.00;0.00;;;27.10;80.60;;;;;;5078342;28;20095;-79
2023/08/30 10:57:21;;;;;;;0.00;0.00;;;27.30;80.30;;;;;;5079029;28;20027;-79
2023/08/30 11:00:07;;;;;;;0.00;0.00;;;27.60;79.50;;;;;;5079827;28;20020;-78
2023/08/30 11:02:33;;;;;;;0.00;0.00;;;;;;;;;;5079861;28;20493;-79
2023/08/30 11:05:00;;;;;;;0.00;0.00;;;27.70;75.70;;;;;;5061144;28;20108;-79
2023/08/30 11:07:26;;;;;;;0.43;0.43;;;;;;;;;;5079464;28;20020;-79
2023/08/30 11:09:55;;;;;;;0.00;0.00;;;27.60;77.50;;;;;;5079565;28;20259;-79
2023/08/30 11:12:22;;;;;;;1.90;1.77;;;28.00;76.90;;;;;;5081531;28;20020;-79
2023/08/30 11:14:49;;;;;;;0.00;0.00;;;28.00;78.20;;;;;;5061849;28;20165;-79
2023/08/30 11:17:19;;;;;;;0.00;0.00;;;27.90;77.70;;;;;;5079187;28;20055;-79
2023/08/30 11:19:45;;;;;;;0.03;0.03;;;27.70;76.80;;;;;;5080356;28;20032;-81
2023/08/30 11:22:17;;;;;;;0.08;0.08;;;27.20;77.70;;;;;;5080473;28;20031;-80
2023/08/30 11:24:45;;;;;;;0.00;0.00;;;27.00;77.00;;;;;;5080391;28;20078;-83
2023/08/30 11:27:12;;;;;;;0.00;0.00;;;27.00;76.90;;;;;;5062031;28;20021;-81
2023/08/30 11:29:40;;;;;;;0.00;0.00;;;26.60;77.70;;;;;;5079240;28;20165;-79
2023/08/30 11:32:07;;;;;;;0.30;0.30;;;26.40;78.50;;;;;;5078809;28;20103;-79
2023/08/30 11:34:34;;;;;;;0.00;0.00;;;;;;;;;;5061302;28;20103;-82
2023/08/30 11:37:00;;;;;;;0.08;0.08;;;;;;;;;;5080345;28;20043;-80
2023/08/30 11:39:29;;;;;;;0.00;0.00;;;26.60;78.50;;;;;;5080772;28;20027;-79
2023/08/30 11:41:55;;;;;;;0.00;0.00;;;25.90;79.90;;;;;;5061575;28;20447;-78
2023/08/30 11:44:24;;;;;;;0.00;0.00;;;25.90;81.50;;;;;;5079899;28;20020;-80
2023/08/30 11:47:06;;;;;;;0.00;0.00;;;26.10;82.20;;;;;;5060533;28;20030;-78
2023/08/30 11:49:34;;;;;;;0.00;0.00;;;26.00;78.80;;;;;;5079819;28;20016;-78
2023/08/30 11:52:00;;;;;;;0.00;0.00;;;26.00;80.80;;;;;;5079456;28;20444;-77
2023/08/30 11:54:26;;;;;;;0.00;0.00;;;25.00;78.60;;;;;;5061171;28;20021;-88
2023/08/30 11:56:52;;;;;;;0.00;0.00;;;26.10;78.80;;;;;;5060608;28;20027;-79
2023/08/30 11:59:22;;;;;;;0.10;0.10;;;26.40;78.50;;;;;;5079401;28;20017;-77
2023/08/30 12:01:49;;;;;;;2.58;2.45;;;26.60;77.30;;;;;;5080061;28;20044;-78
2023/08/30 12:04:15;;;;;;;0.00;0.00;;;26.80;77.00;;;;;;5079675;28;20029;-77
2023/08/30 12:06:42;;;;;;;0.00;0.00;;;27.20;76.60;;;;;;5082200;28;20016;-78
2023/08/30 12:09:15;;;;;;;0.00;0.00;;;27.70;76.80;;;;;;5065322;28;20079;-78
2023/08/30 12:11:42;;;;;;;0.00;0.00;;;28.10;75.30;;;;;;5064964;28;20616;-78
2023/08/30 12:14:08;;;;;;;0.55;0.20;;;28.70;75.20;;;;;;5064420;28;20681;-80
2023/08/30 12:16:36;;;;;;;0.22;0.20;;;28.40;73.90;;;;;;5082338;28;20512;-78
2023/08/30 12:19:12;;;;;;;0.20;0.20;;;28.50;73.30;;;;;;5064261;28;20092;-78
2023/08/30 12:21:47;;;;;;;0.00;0.00;;;28.40;73.60;;;;;;5082485;28;20569;-78
2023/08/30 12:24:13;;;;;;;0.00;0.00;;;28.00;73.80;;;;;;5082348;28;20020;-78
2023/08/30 12:26:38;;;;;;;0.00;0.00;;;27.70;74.30;;;;;;5082020;28;20021;-81
2023/08/30 12:29:08;;;;;;;0.00;0.00;;;27.50;74.70;;;;;;5082389;28;20016;-77
2023/08/30 12:31:34;;;;;;;0.00;0.00;;;27.20;75.20;;;;;;5063415;28;20024;-77
2023/08/30 12:34:00;;;;;;;0.40;0.10;;;27.00;76.20;;;;;;5062412;28;20035;-82
2023/08/30 12:36:27;;;;;;;0.00;0.00;;;26.70;76.30;;;;;;5063493;28;20087;-77
2023/08/30 12:38:52;;;;;;;0.00;0.00;;;26.50;76.30;;;;;;5082546;28;20028;-84
2023/08/30 12:41:25;;;;;;;0.22;0.20;;;26.20;77.30;;;;;;5068439;28;20597;-77
2023/08/30 12:43:51;;;;;;;0.00;0.00;;;26.00;78.30;;;;;;5065755;28;20024;-77
2023/08/30 12:46:22;;;;;;;0.00;0.00;;;25.60;80.80;;;;;;5069293;28;20020;-78
2023/08/30 12:48:50;;;;;;;0.00;0.00;;;;;;;;;;5065011;28;20023;-77
2023/08/30 12:51:16;;;;;;;0.00;0.00;;;25.00;81.20;;;;;;5081843;28;20076;-77
2023/08/30 12:53:42;;;;;;;0.00;0.00;;;25.60;83.70;;;;;;5085393;28;20738;-76
2023/08/30 12:56:09;;;;;;;0.22;0.22;;;;;;;;;;5064258;28;20385;-78
2023/08/30 12:58:36;;;;;;;0.00;0.00;;;;;;;;;;5063027;28;20042;-77
2023/08/30 13:01:01;;;;;;;0.00;0.00;;;24.10;85.40;;;;;;5080411;28;20110;-86